createdAt,value
2023-05-05T00:03:00.370Z,11.70
2023-05-05T00:07:02.190Z,11.65
2023-05-05T00:11:03.745Z,21.52
2023-05-05T00:15:06.511Z,16.20
2023-05-05T00:19:09.430Z,16.00
2023-05-05T00:23:10.967Z,14.27
2023-05-05T00:27:12.504Z,13.15
2023-05-05T00:31:15.274Z,14.35
2023-05-05T00:35:18.431Z,12.80
2023-05-05T00:39:19.990Z,13.07
2023-05-05T00:43:21.528Z,18.05
2023-05-05T00:47:23.085Z,16.73
2023-05-05T00:51:26.189Z,11.80
2023-05-05T00:55:28.427Z,11.70
2023-05-05T00:59:30.755Z,10.40
2023-05-05T01:03:32.541Z,10.60
2023-05-05T01:07:47.631Z,13.95
2023-05-05T01:11:55.731Z,10.70
2023-05-05T01:16:05.568Z,9.45
2023-05-05T01:20:16.042Z,15.98
2023-05-05T01:24:44.016Z,10.02
2023-05-05T01:29:02.677Z,12.98
2023-05-05T01:33:08.292Z,11.15
2023-05-05T01:37:13.683Z,11.60
2023-05-05T01:41:19.275Z,12.02
2023-05-05T01:45:24.683Z,14.45
2023-05-05T01:49:28.487Z,15.02
2023-05-05T01:53:31.358Z,14.35
2023-05-05T01:57:33.650Z,10.90
2023-05-05T02:01:39.254Z,16.05
2023-05-05T02:05:44.434Z,10.85
2023-05-05T02:09:47.928Z,11.05
2023-05-05T02:13:51.041Z,10.68
2023-05-05T02:17:53.525Z,11.55
2023-05-05T02:21:56.488Z,17.25
2023-05-05T02:26:06.069Z,10.40
2023-05-05T02:30:10.017Z,9.25
2023-05-05T02:34:16.298Z,14.13
2023-05-05T02:42:22.830Z,10.43
2023-05-05T02:46:24.473Z,14.13
2023-05-05T02:50:26.062Z,10.57
2023-05-05T02:54:29.324Z,11.52
2023-05-05T02:58:39.203Z,12.05
2023-05-05T03:02:46.645Z,11.65
2023-05-05T03:06:51.530Z,13.00
2023-05-05T03:10:59.977Z,11.82
2023-05-05T03:15:02.560Z,12.02
2023-05-05T03:19:06.759Z,9.70
2023-05-05T03:23:08.644Z,9.57
2023-05-05T03:27:11.518Z,16.77
2023-05-05T03:31:13.652Z,14.95
2023-05-05T03:35:15.182Z,11.95
2023-05-05T03:39:16.702Z,18.08
2023-05-05T03:43:19.607Z,16.35
2023-05-05T03:47:21.147Z,15.68
2023-05-05T03:51:23.219Z,14.48
2023-05-05T03:55:24.762Z,18.85
2023-05-05T03:59:27.845Z,16.83
2023-05-05T04:03:29.471Z,13.52
2023-05-05T04:07:31.086Z,14.27
2023-05-05T04:11:32.631Z,13.73
2023-05-05T04:15:35.564Z,14.95
2023-05-05T04:19:37.178Z,14.02
2023-05-05T04:23:38.710Z,14.90
2023-05-05T04:27:40.297Z,15.02
2023-05-05T04:31:43.267Z,14.82
2023-05-05T04:35:44.859Z,15.75
2023-05-05T04:39:46.429Z,13.95
2023-05-05T04:43:47.950Z,13.35
2023-05-05T04:47:50.865Z,18.73
2023-05-05T04:51:52.439Z,16.85
2023-05-05T04:55:53.980Z,14.00
2023-05-05T04:59:55.509Z,16.30
2023-05-05T05:03:58.608Z,16.35
2023-05-05T05:08:00.278Z,19.10
2023-05-05T05:12:01.833Z,14.00
2023-05-05T05:16:03.680Z,12.27
2023-05-05T05:20:08.236Z,13.93
2023-05-05T05:24:09.988Z,14.23
2023-05-05T05:28:11.516Z,18.08
2023-05-05T05:32:13.104Z,14.70
2023-05-05T05:36:16.061Z,13.95
2023-05-05T05:40:17.799Z,17.05
2023-05-05T05:44:19.340Z,17.33
2023-05-05T05:48:20.911Z,13.15
2023-05-05T05:52:23.924Z,15.55
2023-05-05T05:56:25.524Z,14.27
2023-05-05T06:00:27.130Z,12.52
2023-05-05T06:04:28.762Z,17.30
2023-05-05T06:08:31.675Z,12.85
2023-05-05T06:12:33.327Z,12.70
2023-05-05T06:16:34.962Z,15.32
2023-05-05T06:20:36.565Z,12.00
2023-05-05T06:24:39.461Z,13.65
2023-05-05T06:28:41.010Z,13.77
2023-05-05T06:32:42.606Z,9.75
2023-05-05T06:36:44.300Z,13.05
2023-05-05T06:40:48.631Z,10.32
2023-05-05T06:44:50.330Z,11.77
2023-05-05T06:48:51.925Z,9.40
2023-05-05T06:52:53.459Z,11.93
2023-05-05T06:56:58.167Z,10.00
2023-05-05T07:01:01.087Z,11.63
2023-05-05T07:05:02.782Z,13.07
2023-05-05T07:09:04.370Z,8.57
2023-05-05T08:22:08.430Z,12.27
2023-05-05T08:26:11.498Z,7.20
2023-05-05T08:30:13.502Z,10.57
2023-05-05T08:34:15.033Z,12.05
2023-05-05T08:38:16.802Z,9.40
2023-05-05T08:42:29.279Z,7.50
2023-05-05T08:46:38.796Z,6.85
2023-05-05T08:50:46.326Z,6.15
2023-05-05T08:54:51.237Z,5.97
2023-05-05T08:58:54.912Z,7.43
2023-05-05T09:02:57.898Z,16.38
2023-05-05T09:07:00.943Z,3.85
2023-05-05T09:11:02.636Z,6.95
2023-05-05T09:15:06.680Z,5.10
2023-05-05T09:19:08.378Z,5.75
2023-05-05T09:23:11.211Z,6.00
2023-05-05T09:27:22.065Z,7.50
2023-05-05T09:31:25.056Z,9.93
2023-05-05T09:35:26.635Z,9.82
2023-05-05T09:39:28.106Z,4.68
2023-05-05T09:43:29.579Z,12.45
2023-05-05T09:47:36.651Z,6.82
2023-05-05T09:51:38.354Z,6.15
2023-05-05T09:55:39.873Z,10.18
2023-05-05T09:59:54.716Z,43.25
2023-05-05T10:03:57.568Z,4.82
2023-05-05T10:08:11.769Z,6.00
2023-05-05T10:12:13.384Z,4.30
2023-05-05T10:16:18.101Z,7.82
2023-05-05T10:20:22.383Z,8.68
2023-05-05T10:24:33.391Z,5.43
2023-05-05T10:36:49.078Z,7.38
2023-05-05T10:40:51.481Z,6.22
2023-05-05T10:44:53.006Z,11.32
2023-05-05T10:48:59.633Z,5.07
2023-05-05T10:53:17.044Z,8.82
2023-05-05T10:57:22.371Z,4.95
2023-05-05T11:01:32.115Z,5.13
2023-05-05T11:05:33.945Z,4.20
2023-05-05T11:09:53.850Z,5.90
2023-05-05T11:14:19.553Z,5.63
2023-05-05T11:18:37.628Z,3.67
2023-05-05T11:23:13.995Z,5.97
2023-05-05T11:27:18.881Z,4.13
2023-05-05T11:31:20.550Z,5.97
2023-05-05T11:35:22.082Z,6.95
2023-05-05T11:39:32.771Z,9.70
2023-05-05T11:43:35.850Z,4.72
2023-05-05T11:47:37.430Z,4.15
2023-05-05T11:51:39.702Z,4.55
2023-05-05T11:55:41.238Z,5.30
2023-05-05T11:59:56.349Z,7.63
2023-05-05T12:03:58.078Z,3.88
2023-05-05T12:07:59.903Z,6.93
2023-05-05T12:12:01.497Z,5.65
2023-05-05T12:16:11.124Z,4.18
2023-05-05T12:20:13.571Z,5.63
2023-05-05T12:24:15.904Z,6.47
2023-05-05T12:28:17.390Z,4.60
2023-05-05T12:32:22.172Z,5.32
2023-05-05T12:36:23.871Z,5.00
2023-05-05T12:40:48.279Z,4.88
2023-05-05T12:44:50.080Z,6.15
2023-05-05T12:49:01.575Z,4.95
2023-05-05T12:53:03.070Z,5.00
2023-05-05T12:57:11.262Z,4.25
2023-05-05T13:01:12.772Z,5.20
2023-05-05T13:05:15.694Z,6.13
2023-05-05T13:09:24.006Z,5.13
2023-05-05T13:13:25.547Z,4.95
2023-05-05T13:17:27.096Z,3.88
2023-05-05T13:21:30.095Z,4.63
2023-05-05T13:25:31.634Z,7.38
2023-05-05T13:29:33.185Z,6.75
2023-05-05T13:33:35.252Z,5.18
2023-05-05T13:37:38.173Z,8.27
2023-05-05T13:41:39.748Z,5.22
2023-05-05T13:45:41.994Z,2.75
2023-05-05T13:49:43.610Z,5.30
2023-05-05T13:53:46.760Z,7.38
2023-05-05T13:57:48.763Z,6.32
2023-05-05T14:01:50.231Z,6.22
2023-05-05T14:05:51.863Z,5.90
2023-05-05T14:09:54.716Z,5.25
2023-05-05T14:13:56.171Z,5.43
2023-05-05T14:17:57.739Z,5.68
2023-05-05T14:21:59.233Z,3.72
2023-05-05T14:26:02.133Z,5.03
2023-05-05T14:30:04.467Z,4.75
2023-05-05T14:34:05.999Z,3.72
2023-05-05T14:38:07.599Z,3.42
2023-05-05T14:42:10.502Z,4.60
2023-05-05T14:46:12.389Z,4.90
2023-05-05T14:50:14.052Z,4.40
2023-05-05T14:54:27.527Z,5.78
2023-05-05T14:58:31.452Z,5.85
2023-05-05T15:02:33.010Z,2.95
2023-05-05T15:06:34.643Z,4.78
2023-05-05T15:10:36.211Z,5.60
2023-05-05T15:14:39.030Z,4.22
2023-05-05T15:18:40.526Z,7.90
2023-05-05T15:22:41.996Z,4.80
2023-05-05T15:26:43.499Z,4.78
2023-05-05T15:30:46.322Z,4.70
2023-05-05T15:34:50.108Z,8.93
2023-05-05T15:38:51.923Z,4.38
2023-05-05T15:42:53.397Z,4.90
2023-05-05T15:46:56.262Z,5.30
2023-05-05T15:50:57.815Z,4.28
2023-05-05T15:54:59.358Z,5.18
2023-05-05T15:59:00.841Z,5.18
2023-05-05T16:03:03.942Z,3.22
2023-05-05T16:07:05.551Z,5.35
2023-05-05T16:11:07.038Z,6.50
2023-05-05T16:15:09.900Z,4.10
2023-05-05T16:19:12.888Z,4.55
2023-05-05T16:23:14.356Z,8.55
2023-05-05T16:27:15.849Z,4.25
2023-05-05T16:31:17.444Z,4.72
2023-05-05T16:35:20.830Z,6.45
2023-05-05T16:39:22.329Z,5.80
2023-05-05T16:43:23.813Z,6.05
2023-05-05T16:47:25.353Z,5.85
2023-05-05T16:51:28.235Z,5.60
2023-05-05T16:55:29.738Z,3.83
2023-05-05T16:59:31.791Z,4.13
2023-05-05T17:03:33.351Z,4.63
2023-05-05T17:07:36.212Z,3.17
2023-05-05T17:11:37.690Z,4.43
2023-05-05T17:15:39.323Z,5.05
2023-05-05T17:19:40.982Z,5.63
2023-05-05T17:23:43.789Z,5.25
2023-05-05T17:27:45.281Z,5.07
2023-05-05T17:31:47.068Z,6.30
2023-05-05T17:35:48.574Z,5.80
2023-05-05T17:39:51.496Z,5.70
2023-05-05T17:43:52.955Z,6.20
2023-05-05T17:47:54.471Z,3.53
2023-05-05T17:51:56.014Z,5.47
2023-05-05T17:55:59.109Z,4.45
2023-05-05T18:00:03.172Z,6.10
2023-05-05T18:04:04.967Z,5.35
2023-05-05T18:08:06.503Z,5.93
2023-05-05T18:12:09.458Z,9.27
2023-05-05T18:16:11.244Z,8.52
2023-05-05T18:20:12.994Z,8.93
2023-05-05T18:24:20.119Z,6.50
2023-05-05T18:28:23.517Z,11.10
2023-05-05T18:32:25.090Z,8.82
2023-05-05T18:36:26.633Z,9.98
2023-05-05T18:40:28.190Z,10.40
2023-05-05T18:44:31.122Z,5.90
2023-05-05T18:48:32.655Z,9.13
2023-05-05T18:52:34.441Z,15.60
2023-05-05T18:56:36.101Z,10.45
2023-05-05T19:00:38.980Z,7.00
2023-05-05T19:04:40.635Z,7.53
2023-05-05T19:08:42.205Z,8.13
2023-05-05T19:12:43.798Z,8.93
2023-05-05T19:16:46.976Z,6.90
2023-05-05T19:20:48.489Z,8.02
2023-05-05T19:24:49.990Z,6.60
2023-05-05T19:28:51.482Z,6.30
2023-05-05T19:32:54.397Z,7.20
2023-05-05T19:36:55.918Z,9.98
2023-05-05T19:40:57.391Z,7.32
2023-05-05T19:44:58.869Z,8.38
2023-05-05T19:49:01.672Z,6.97
2023-05-05T19:53:03.362Z,9.38
2023-05-05T19:57:04.826Z,14.02
2023-05-05T20:01:06.324Z,6.60
2023-05-05T20:05:09.902Z,9.00
2023-05-05T20:09:11.362Z,7.90
2023-05-05T20:13:12.922Z,7.65
2023-05-05T20:17:14.498Z,6.07
2023-05-05T20:21:17.816Z,8.00
2023-05-05T20:25:19.339Z,8.55
2023-05-05T20:29:20.817Z,6.78
2023-05-05T20:33:22.284Z,5.82
2023-05-05T20:37:25.365Z,7.97
2023-05-05T20:41:26.902Z,7.28
2023-05-05T20:45:28.423Z,10.82
2023-05-05T20:49:30.399Z,8.70
2023-05-05T20:53:33.250Z,9.25
2023-05-05T20:57:34.710Z,7.10
2023-05-05T21:01:36.419Z,10.38
2023-05-05T21:05:39.404Z,7.95
2023-05-05T21:09:45.076Z,7.70
2023-05-05T21:13:46.527Z,6.20
2023-05-05T21:17:48.008Z,6.93
2023-05-05T21:21:49.720Z,7.60
2023-05-05T21:25:52.577Z,6.88
2023-05-05T21:29:54.043Z,8.43
2023-05-05T21:33:55.493Z,9.13
2023-05-05T21:37:56.967Z,9.63
2023-05-05T21:42:00.599Z,8.75
2023-05-05T21:46:03.425Z,7.88
2023-05-05T21:50:05.752Z,6.10
2023-05-05T21:54:07.301Z,9.52
2023-05-05T21:58:10.247Z,8.30
2023-05-05T22:02:11.786Z,6.47
2023-05-05T22:06:15.159Z,9.65
2023-05-05T22:10:16.676Z,8.10
2023-05-05T22:14:19.524Z,7.45
2023-05-05T22:18:20.985Z,6.43
2023-05-05T22:22:22.474Z,10.32
2023-05-05T22:26:23.942Z,9.38
2023-05-05T22:30:26.773Z,10.13
2023-05-05T22:34:28.240Z,8.90
2023-05-05T22:38:29.732Z,6.45
2023-05-05T22:42:31.223Z,9.55
2023-05-05T22:46:34.098Z,11.40
2023-05-05T22:50:35.938Z,11.65
2023-05-05T22:54:37.411Z,10.55
2023-05-05T22:58:38.895Z,11.23
2023-05-05T23:02:41.738Z,11.05
2023-05-05T23:06:43.254Z,10.73
2023-05-05T23:10:45.022Z,12.23
2023-05-05T23:14:46.580Z,11.90
2023-05-05T23:18:49.495Z,12.20
2023-05-05T23:22:50.964Z,15.70
2023-05-05T23:26:52.449Z,12.30
2023-05-05T23:30:53.991Z,12.45
2023-05-05T23:34:56.828Z,14.25
2023-05-05T23:38:58.317Z,14.32
2023-05-05T23:42:59.793Z,14.75
2023-05-05T23:47:02.284Z,16.63
2023-05-05T23:51:05.157Z,14.32
2023-05-05T23:55:07.980Z,15.95
2023-05-05T23:59:09.698Z,14.73
